createdAt,value
2019-05-16T00:01:34.592Z,4.20
2019-05-16T00:06:39.147Z,3.98
2019-05-16T00:11:42.754Z,4.40
2019-05-16T00:16:48.315Z,4.92
2019-05-16T00:21:52.037Z,5.42
2019-05-16T00:26:55.426Z,4.97
2019-05-16T00:31:58.814Z,5.47
2019-05-16T00:37:02.545Z,5.53
2019-05-16T00:42:05.937Z,5.35
2019-05-16T00:47:09.329Z,5.15
2019-05-16T00:52:12.720Z,5.25
2019-05-16T00:57:18.861Z,5.95
2019-05-16T01:02:21.933Z,5.17
2019-05-16T01:07:27.595Z,6.40
2019-05-16T01:12:30.472Z,6.10
2019-05-16T01:17:33.863Z,6.67
2019-05-16T01:22:38.474Z,6.05
2019-05-16T01:27:42.153Z,6.40
2019-05-16T01:32:45.548Z,5.55
2019-05-16T01:37:49.008Z,6.55
2019-05-16T01:42:52.729Z,6.15
2019-05-16T01:47:56.115Z,7.10
2019-05-16T01:52:59.518Z,6.95
2019-05-16T01:58:02.907Z,6.40
2019-05-16T02:03:08.255Z,6.33
2019-05-16T02:08:11.505Z,6.87
2019-05-16T02:13:14.921Z,7.15
2019-05-16T02:18:18.703Z,7.87
2019-05-16T02:23:22.058Z,7.67
2019-05-16T02:28:30.940Z,7.03
2019-05-16T02:33:31.667Z,7.45
2019-05-16T02:38:35.377Z,7.75
2019-05-16T02:43:41.679Z,7.35
2019-05-16T02:48:44.063Z,7.50
2019-05-16T02:53:50.777Z,8.05
2019-05-16T02:58:52.573Z,7.65
2019-05-16T03:03:56.036Z,7.20
2019-05-16T03:09:04.775Z,7.90
2019-05-16T03:14:06.425Z,6.92
2019-05-16T03:19:12.723Z,6.20
2019-05-16T03:24:16.124Z,6.05
2019-05-16T03:29:21.825Z,6.47
2019-05-16T03:34:26.403Z,6.03
2019-05-16T03:39:31.420Z,5.90
2019-05-16T03:44:34.979Z,5.60
2019-05-16T03:49:38.367Z,5.72
2019-05-16T03:54:42.178Z,6.17
2019-05-16T03:59:45.668Z,5.45
2019-05-16T04:04:51.046Z,5.87
2019-05-16T04:09:54.177Z,7.55
2019-05-16T04:14:57.952Z,7.55
2019-05-16T04:20:02.369Z,9.13
2019-05-16T04:25:10.863Z,9.05
2019-05-16T04:30:12.888Z,8.75
2019-05-16T04:35:16.471Z,8.83
2019-05-16T04:40:22.008Z,9.28
2019-05-16T04:45:25.220Z,9.55
2019-05-16T04:50:31.124Z,9.78
2019-05-16T04:55:33.744Z,10.70
2019-05-16T05:00:37.145Z,9.90
2019-05-16T05:05:41.415Z,10.35
2019-05-16T05:10:44.814Z,10.90
2019-05-16T05:15:50.731Z,10.50
2019-05-16T05:20:53.406Z,10.43
2019-05-16T05:25:56.798Z,12.73
2019-05-16T05:31:00.202Z,13.00
2019-05-16T05:36:03.931Z,11.80
2019-05-16T05:41:07.313Z,11.50
2019-05-16T05:46:11.314Z,12.45
2019-05-16T05:51:14.746Z,12.35
2019-05-16T05:56:19.775Z,13.93
2019-05-16T06:01:23.218Z,11.93
2019-05-16T06:06:26.618Z,12.88
2019-05-16T06:11:30.717Z,13.05
2019-05-16T06:16:34.549Z,11.65
2019-05-16T06:21:38.050Z,13.32
2019-05-16T06:26:41.445Z,13.35
2019-05-16T06:31:44.848Z,13.62
2019-05-16T06:36:50.685Z,13.00
2019-05-16T06:41:53.387Z,13.60
2019-05-16T06:47:12.598Z,13.40
2019-05-16T06:52:02.017Z,13.48
2019-05-16T06:57:05.428Z,13.72
2019-05-16T07:02:12.269Z,14.13
2019-05-16T07:07:13.971Z,14.58
2019-05-16T07:12:20.130Z,13.18
2019-05-16T07:17:23.143Z,14.13
2019-05-16T07:22:26.863Z,14.47
2019-05-16T07:27:31.010Z,12.50
2019-05-16T07:32:34.826Z,12.13
2019-05-16T07:37:39.961Z,12.68
2019-05-16T07:42:43.509Z,11.57
2019-05-16T07:47:46.942Z,11.73
2019-05-16T07:52:51.178Z,11.83
2019-05-16T07:57:54.792Z,11.90
2019-05-16T08:03:00.031Z,11.30
2019-05-16T08:08:03.578Z,10.13
2019-05-16T08:13:07.087Z,10.18
2019-05-16T08:18:11.191Z,11.60
2019-05-16T08:23:14.607Z,10.50
2019-05-16T08:28:21.524Z,11.12
2019-05-16T08:33:23.170Z,10.60
2019-05-16T08:38:26.899Z,11.00
2019-05-16T08:43:31.634Z,10.13
2019-05-16T08:48:35.988Z,9.30
2019-05-16T08:53:43.289Z,8.93
2019-05-16T08:58:44.562Z,7.67
2019-05-16T09:03:51.689Z,8.10
2019-05-16T09:08:53.252Z,7.85
2019-05-16T09:13:57.363Z,8.88
2019-05-16T09:19:00.988Z,7.97
2019-05-16T09:24:06.201Z,8.08
2019-05-16T09:29:09.678Z,8.20
2019-05-16T09:34:13.083Z,7.42
2019-05-16T09:39:17.127Z,7.67
2019-05-16T09:44:20.450Z,7.17
2019-05-16T09:49:25.945Z,7.05
2019-05-16T09:54:28.966Z,6.90
2019-05-16T09:59:32.370Z,7.12
2019-05-16T10:04:36.836Z,7.55
2019-05-16T10:09:45.007Z,7.70
2019-05-16T10:14:46.988Z,7.05
2019-05-16T10:19:50.489Z,7.12
2019-05-16T10:24:53.884Z,7.25
2019-05-16T10:30:01.135Z,6.50
2019-05-16T10:35:02.566Z,6.53
2019-05-16T10:40:07.432Z,5.58
2019-05-16T10:45:11.583Z,5.45
2019-05-16T10:50:16.655Z,5.15
2019-05-16T10:55:20.476Z,5.60
2019-05-16T11:00:46.961Z,6.08
2019-05-16T11:05:33.360Z,6.33
2019-05-16T11:10:37.173Z,6.10
2019-05-16T11:15:39.903Z,7.08
2019-05-16T11:20:47.829Z,5.47
2019-05-16T11:25:48.456Z,5.87
2019-05-16T11:30:52.044Z,5.90
2019-05-16T11:35:55.499Z,5.67
2019-05-16T11:40:58.913Z,5.25
2019-05-16T11:46:02.597Z,5.83
2019-05-16T11:51:07.256Z,6.42
2019-05-16T11:56:10.806Z,7.12
2019-05-16T12:01:16.497Z,7.50
2019-05-16T12:06:19.962Z,6.58
2019-05-16T12:11:23.377Z,6.70
2019-05-16T12:16:27.547Z,7.53
2019-05-16T12:21:31.052Z,6.78
2019-05-16T12:26:37.102Z,5.85
2019-05-16T12:31:54.228Z,5.42
2019-05-16T12:36:47.241Z,5.37
2019-05-16T12:41:50.401Z,4.97
2019-05-16T12:46:53.829Z,5.12
2019-05-16T12:51:57.224Z,5.33
2019-05-16T12:57:00.935Z,4.97
2019-05-16T13:02:06.990Z,6.60
2019-05-16T13:07:09.877Z,6.30
2019-05-16T13:12:13.558Z,6.00
2019-05-16T13:17:16.969Z,6.37
2019-05-16T13:22:20.357Z,6.53
2019-05-16T13:27:23.754Z,6.28
2019-05-16T13:32:27.321Z,4.92
2019-05-16T13:37:30.722Z,5.25
2019-05-16T13:42:36.698Z,6.17
2019-05-16T13:47:39.260Z,5.87
2019-05-16T13:52:42.734Z,5.05
2019-05-16T13:57:46.219Z,5.67
2019-05-16T14:02:49.656Z,4.92
2019-05-16T14:07:53.357Z,5.25
2019-05-16T14:12:57.705Z,4.92
2019-05-16T14:18:01.490Z,5.22
2019-05-16T14:23:08.069Z,4.75
2019-05-16T14:28:10.038Z,4.72
2019-05-16T14:33:14.246Z,5.00
2019-05-16T14:38:17.872Z,5.15
2019-05-16T14:43:21.201Z,4.83
2019-05-16T14:48:27.573Z,4.50
2019-05-16T14:53:29.731Z,4.60
2019-05-16T14:58:33.133Z,4.85
2019-05-16T15:03:37.099Z,4.80
2019-05-16T15:08:40.625Z,5.25
2019-05-16T15:13:44.291Z,5.35
2019-05-16T15:18:47.761Z,4.95
2019-05-16T15:23:51.090Z,5.65
2019-05-16T15:28:54.547Z,4.95
2019-05-16T15:33:57.954Z,5.50
2019-05-16T15:39:01.384Z,5.60
2019-05-16T15:44:07.576Z,5.60
2019-05-16T15:49:10.577Z,5.40
2019-05-16T15:54:23.343Z,5.80
2019-05-16T15:59:27.179Z,5.92
2019-05-16T16:04:31.112Z,8.15
2019-05-16T16:09:37.612Z,7.22
2019-05-16T16:14:40.208Z,7.70
2019-05-16T16:19:43.600Z,7.65
2019-05-16T16:24:47.878Z,8.50
2019-05-16T16:29:51.390Z,8.63
2019-05-16T16:34:57.541Z,8.40
2019-05-16T16:40:01.067Z,9.70
2019-05-16T16:45:09.272Z,9.63
2019-05-16T16:50:13.004Z,11.15
2019-05-16T16:55:17.176Z,11.08
2019-05-16T17:00:21.091Z,10.55
2019-05-16T17:05:26.390Z,11.57
2019-05-16T17:10:29.635Z,9.58
2019-05-16T17:15:33.034Z,8.98
2019-05-16T17:20:37.131Z,9.60
2019-05-16T17:25:41.146Z,9.95
2019-05-16T17:30:46.865Z,11.25
2019-05-16T17:35:50.006Z,12.18
2019-05-16T17:40:53.395Z,9.75
2019-05-16T17:45:57.565Z,11.28
2019-05-16T17:51:01.198Z,10.82
2019-05-16T17:56:06.841Z,11.70
2019-05-16T18:01:10.294Z,10.58
2019-05-16T18:06:14.036Z,11.00
2019-05-16T18:11:17.900Z,10.18
2019-05-16T18:16:21.240Z,10.43
2019-05-16T18:21:24.643Z,9.98
2019-05-16T18:26:28.043Z,11.05
2019-05-16T18:31:32.236Z,11.10
2019-05-16T18:36:36.029Z,10.80
2019-05-16T18:41:39.426Z,9.45
2019-05-16T18:46:42.920Z,10.43
2019-05-16T18:51:46.652Z,10.55
2019-05-16T18:56:50.161Z,9.35
2019-05-16T19:01:53.566Z,9.03
2019-05-16T19:06:59.411Z,9.30
2019-05-16T19:12:02.081Z,9.00
2019-05-16T19:17:20.647Z,10.58
2019-05-16T19:22:10.620Z,11.63
2019-05-16T19:27:14.131Z,10.58
2019-05-16T19:32:17.540Z,12.58
2019-05-16T19:37:21.238Z,11.50
2019-05-16T19:42:26.657Z,12.85
2019-05-16T19:47:37.543Z,18.07
2019-05-16T19:52:36.721Z,18.20
2019-05-16T19:57:40.344Z,13.00
2019-05-16T20:02:43.744Z,12.65
2019-05-16T20:07:47.174Z,10.20
2019-05-16T20:12:50.577Z,10.88
2019-05-16T20:17:56.210Z,11.55
2019-05-16T20:22:59.138Z,12.73
2019-05-16T20:28:02.542Z,11.78
2019-05-16T20:33:09.193Z,10.35
2019-05-16T20:38:11.773Z,11.00
2019-05-16T20:43:16.829Z,9.85
2019-05-16T20:48:20.406Z,10.28
2019-05-16T20:53:24.069Z,12.00
2019-05-16T20:58:27.551Z,10.72
2019-05-16T21:03:31.044Z,10.80
2019-05-16T21:08:34.496Z,11.50
2019-05-16T21:13:37.941Z,10.13
2019-05-16T21:18:41.437Z,9.40
2019-05-16T21:23:46.990Z,11.15
2019-05-16T21:28:50.455Z,9.98
2019-05-16T21:33:53.851Z,11.10
2019-05-16T21:38:57.330Z,10.18
2019-05-16T21:44:00.737Z,11.95
2019-05-16T21:49:04.206Z,9.90
2019-05-16T21:54:07.615Z,11.15
2019-05-16T21:59:11.020Z,11.20
2019-05-16T22:04:14.767Z,10.88
2019-05-16T22:09:18.216Z,10.88
2019-05-16T22:14:24.665Z,12.25
2019-05-16T22:19:28.067Z,13.28
2019-05-16T22:24:31.460Z,12.70
2019-05-16T22:29:37.044Z,13.78
2019-05-16T22:34:39.978Z,12.10
2019-05-16T22:39:43.380Z,7.85
2019-05-16T22:44:46.770Z,9.78
2019-05-16T22:49:50.204Z,8.05
2019-05-16T22:54:53.597Z,11.88
2019-05-16T22:59:57.040Z,9.33
2019-05-16T23:05:00.390Z,7.62
2019-05-16T23:10:03.926Z,9.63
2019-05-16T23:15:07.613Z,8.75
2019-05-16T23:20:11.177Z,6.90
2019-05-16T23:25:16.925Z,11.33
2019-05-16T23:30:20.419Z,10.98
2019-05-16T23:35:26.708Z,12.45
2019-05-16T23:40:29.227Z,10.43
2019-05-16T23:45:32.702Z,11.40
2019-05-16T23:50:36.811Z,11.88
2019-05-16T23:55:40.631Z,11.57
